createdAt,value
2023-04-26T00:00:53.476Z,95956.09
2023-04-26T00:03:20.881Z,95948.78
2023-04-26T00:05:47.640Z,95959.06
2023-04-26T00:08:14.411Z,95957.19
2023-04-26T00:10:41.222Z,95960.69
2023-04-26T00:13:08.340Z,95961.31
2023-04-26T00:15:35.048Z,95959.50
2023-04-26T00:18:01.544Z,95960.56
2023-04-26T00:20:28.095Z,95948.69
2023-04-26T00:22:54.738Z,95961.63
2023-04-26T00:25:21.387Z,95946.31
2023-04-26T00:28:05.284Z,95938.25
2023-04-26T00:30:32.372Z,95944.78
2023-04-26T00:32:58.957Z,95944.69
2023-04-26T00:35:25.579Z,95935.50
2023-04-26T00:37:52.181Z,95941.44
2023-04-26T00:40:20.849Z,95933.03
2023-04-26T00:42:47.289Z,95943.19
2023-04-26T00:45:13.865Z,95937.97
2023-04-26T00:47:40.845Z,95939.75
2023-04-26T00:50:08.456Z,95937.28
2023-04-26T00:52:35.344Z,95946.75
2023-04-26T00:55:03.011Z,95937.97
2023-04-26T00:57:29.578Z,95947.78
2023-04-26T00:59:56.423Z,95940.03
2023-04-26T01:02:23.054Z,95945.25
2023-04-26T01:04:49.634Z,95944.22
2023-04-26T01:07:16.298Z,95945.06
2023-04-26T01:09:44.165Z,95943.47
2023-04-26T01:12:11.972Z,95940.25
2023-04-26T01:14:40.196Z,95943.81
2023-04-26T01:17:06.781Z,95931.34
2023-04-26T01:19:33.407Z,95932.63
2023-04-26T01:22:00.048Z,95926.41
2023-04-26T01:24:26.608Z,95932.34
2023-04-26T01:26:53.069Z,95940.38
2023-04-26T01:29:21.465Z,95945.13
2023-04-26T01:31:49.352Z,95946.88
2023-04-26T01:34:16.989Z,95936.56
2023-04-26T01:36:43.498Z,95936.25
2023-04-26T01:39:10.312Z,95934.88
2023-04-26T01:41:44.064Z,95931.56
2023-04-26T01:44:10.579Z,95945.31
2023-04-26T01:46:37.097Z,95939.94
2023-04-26T01:49:03.672Z,95942.06
2023-04-26T01:51:30.173Z,95938.28
2023-04-26T01:53:56.683Z,95938.00
2023-04-26T01:56:24.619Z,95945.78
2023-04-26T01:58:51.507Z,95938.19
2023-04-26T02:01:18.304Z,95937.38
2023-04-26T02:03:46.182Z,95933.09
2023-04-26T02:06:12.860Z,95925.00
2023-04-26T02:08:40.829Z,95930.16
2023-04-26T02:11:07.390Z,95922.00
2023-04-26T02:13:33.913Z,95925.25
2023-04-26T02:16:00.459Z,95935.25
2023-04-26T02:18:27.645Z,95920.47
2023-04-26T02:20:54.087Z,95929.28
2023-04-26T02:23:20.577Z,95922.88
2023-04-26T02:25:48.735Z,95926.19
2023-04-26T02:28:16.196Z,95915.94
2023-04-26T02:30:43.196Z,95913.00
2023-04-26T02:33:09.861Z,95922.22
2023-04-26T02:35:39.517Z,95912.25
2023-04-26T02:38:06.040Z,95915.50
2023-04-26T02:40:32.584Z,95907.94
2023-04-26T02:42:59.168Z,95905.81
2023-04-26T02:45:25.714Z,95908.22
2023-04-26T02:47:52.309Z,95909.03
2023-04-26T02:50:18.975Z,95896.59
2023-04-26T02:52:45.458Z,95895.47
2023-04-26T02:55:12.589Z,95885.97
2023-04-26T02:57:39.091Z,95881.34
2023-04-26T03:00:07.870Z,95890.00
2023-04-26T03:02:36.439Z,95898.09
2023-04-26T03:05:03.585Z,95883.25
2023-04-26T03:07:31.383Z,95879.28
2023-04-26T03:09:58.016Z,95879.28
2023-04-26T03:12:24.516Z,95869.81
2023-04-26T03:14:51.041Z,95876.78
2023-04-26T03:17:17.564Z,95876.25
2023-04-26T03:19:44.027Z,95873.94
2023-04-26T03:22:12.388Z,95888.38
2023-04-26T03:24:38.852Z,95884.88
2023-04-26T03:27:05.430Z,95877.84
2023-04-26T03:29:31.878Z,95887.53
2023-04-26T03:31:58.343Z,95885.59
2023-04-26T03:34:24.864Z,95886.91
2023-04-26T03:36:51.863Z,95888.28
2023-04-26T03:39:18.398Z,95883.19
2023-04-26T03:41:45.242Z,95881.00
2023-04-26T03:44:12.432Z,95893.91
2023-04-26T03:46:38.912Z,95891.97
2023-04-26T03:49:05.366Z,95882.50
2023-04-26T03:51:31.862Z,95883.78
2023-04-26T03:54:01.551Z,95883.97
2023-04-26T03:56:28.033Z,95882.16
2023-04-26T03:58:54.589Z,95881.41
2023-04-26T04:01:21.276Z,95886.38
2023-04-26T04:03:47.913Z,95883.44
2023-04-26T04:06:14.664Z,95885.50
2023-04-26T04:08:41.303Z,95884.63
2023-04-26T04:11:07.911Z,95883.31
2023-04-26T04:13:34.664Z,95887.56
2023-04-26T04:16:01.484Z,95882.19
2023-04-26T04:18:28.038Z,95898.72
2023-04-26T04:20:54.592Z,95893.75
2023-04-26T04:23:21.597Z,95894.25
2023-04-26T04:25:49.185Z,95897.53
2023-04-26T04:28:16.477Z,95895.72
2023-04-26T04:30:44.165Z,95904.25
2023-04-26T04:33:10.907Z,95904.56
2023-04-26T04:35:37.433Z,95898.03
2023-04-26T04:38:04.313Z,95899.84
2023-04-26T04:40:32.958Z,95901.97
2023-04-26T04:43:01.062Z,95907.63
2023-04-26T04:45:28.507Z,95911.75
2023-04-26T04:47:57.216Z,95910.88
2023-04-26T04:50:25.859Z,95922.81
2023-04-26T04:52:52.505Z,95920.09
2023-04-26T04:55:19.848Z,95926.25
2023-04-26T04:57:46.354Z,95923.03
2023-04-26T05:00:14.145Z,95930.28
2023-04-26T05:02:42.839Z,95922.44
2023-04-26T05:05:11.238Z,95917.19
2023-04-26T05:07:38.243Z,95920.22
2023-04-26T05:10:05.524Z,95918.41
2023-04-26T05:12:32.023Z,95913.50
2023-04-26T05:14:58.495Z,95913.31
2023-04-26T05:17:25.091Z,95920.44
2023-04-26T05:19:51.698Z,95914.84
2023-04-26T05:22:21.061Z,95917.97
2023-04-26T05:24:48.328Z,95916.81
2023-04-26T05:27:15.169Z,95916.78
2023-04-26T05:29:42.021Z,95906.34
2023-04-26T05:32:08.880Z,95889.56
2023-04-26T05:34:36.736Z,95893.16
2023-04-26T05:37:03.584Z,95881.59
2023-04-26T05:39:30.593Z,95880.22
2023-04-26T05:41:57.169Z,95877.97
2023-04-26T05:44:23.670Z,95872.84
2023-04-26T05:46:50.190Z,95875.63
2023-04-26T05:49:16.671Z,95863.75
2023-04-26T05:51:43.398Z,95871.94
2023-04-26T05:54:09.929Z,95867.38
2023-04-26T05:56:36.583Z,95875.03
2023-04-26T05:59:03.093Z,95881.56
2023-04-26T06:01:29.627Z,95882.91
2023-04-26T06:03:59.884Z,95880.88
2023-04-26T06:06:27.655Z,95886.78
2023-04-26T06:08:54.563Z,95883.22
2023-04-26T06:11:21.367Z,95895.22
2023-04-26T06:13:48.071Z,95894.66
2023-04-26T06:16:14.653Z,95896.81
2023-04-26T06:18:41.377Z,95895.75
2023-04-26T06:21:08.121Z,95904.97
2023-04-26T06:23:34.644Z,95909.28
2023-04-26T06:26:01.301Z,95914.97
2023-04-26T06:28:27.858Z,95916.88
2023-04-26T06:30:54.403Z,95912.31
2023-04-26T06:33:21.021Z,95916.88
2023-04-26T06:35:47.644Z,95899.13
2023-04-26T06:38:14.166Z,95895.44
2023-04-26T06:40:41.284Z,95883.75
2023-04-26T06:43:07.765Z,95887.53
2023-04-26T06:45:34.307Z,95892.69
2023-04-26T06:48:01.651Z,95895.69
2023-04-26T06:50:29.175Z,95894.00
2023-04-26T06:52:56.229Z,95887.09
2023-04-26T06:55:23.068Z,95894.53
2023-04-26T06:57:51.020Z,95887.38
2023-04-26T07:00:18.168Z,95889.66
2023-04-26T07:02:44.857Z,95886.72
2023-04-26T07:05:11.760Z,95895.00
2023-04-26T07:07:38.279Z,95890.31
2023-04-26T07:10:05.318Z,95892.31
2023-04-26T07:12:31.865Z,95891.41
2023-04-26T07:14:58.386Z,95883.72
2023-04-26T07:17:24.909Z,95893.72
2023-04-26T07:19:51.568Z,95902.06
2023-04-26T07:22:18.084Z,95915.03
2023-04-26T07:24:44.562Z,95908.13
2023-04-26T07:27:11.233Z,95896.56
2023-04-26T07:29:39.035Z,95902.22
2023-04-26T07:32:06.695Z,95910.44
2023-04-26T07:34:33.281Z,95899.50
2023-04-26T07:36:59.833Z,95900.50
2023-04-26T07:39:26.397Z,95891.28
2023-04-26T07:41:52.915Z,95896.94
2023-04-26T07:44:19.394Z,95903.84
2023-04-26T07:46:46.053Z,95907.63
2023-04-26T07:49:13.934Z,95898.03
2023-04-26T07:51:44.267Z,95892.78
2023-04-26T07:54:11.061Z,95898.97
2023-04-26T07:56:37.627Z,95894.41
2023-04-26T07:59:04.973Z,95892.78
2023-04-26T08:01:31.441Z,95892.59
2023-04-26T08:03:58.480Z,95889.97
2023-04-26T08:06:26.046Z,95886.84
2023-04-26T08:08:53.734Z,95897.47
2023-04-26T08:11:20.370Z,95892.00
2023-04-26T08:13:46.974Z,95894.50
2023-04-26T08:16:16.716Z,95889.19
2023-04-26T08:18:46.663Z,95889.22
2023-04-26T08:21:13.665Z,95882.50
2023-04-26T08:23:49.344Z,95892.09
2023-04-26T08:26:15.796Z,95890.03
2023-04-26T08:28:42.298Z,95886.47
2023-04-26T08:31:10.159Z,95896.81
2023-04-26T08:33:36.934Z,95891.06
2023-04-26T08:36:03.573Z,95892.00
2023-04-26T08:38:30.701Z,95896.28
2023-04-26T08:41:02.547Z,95896.56
2023-04-26T08:43:29.945Z,95900.66
2023-04-26T08:46:07.142Z,95895.13
2023-04-26T08:48:36.372Z,95880.00
2023-04-26T08:51:04.157Z,95879.59
2023-04-26T08:53:32.059Z,95882.00
2023-04-26T08:55:59.505Z,95883.75
2023-04-26T08:58:27.064Z,95878.19
2023-04-26T09:00:54.248Z,95869.53
2023-04-26T09:03:23.453Z,95874.06
2023-04-26T09:05:50.512Z,95876.81
2023-04-26T09:08:18.204Z,95876.16
2023-04-26T09:10:45.254Z,95866.53
2023-04-26T09:13:12.340Z,95870.28
2023-04-26T09:15:39.606Z,95867.88
2023-04-26T09:18:18.520Z,95873.53
2023-04-26T09:20:46.348Z,95874.50
2023-04-26T09:23:13.037Z,95873.63
2023-04-26T09:25:39.794Z,95873.72
2023-04-26T09:28:21.408Z,95874.66
2023-04-26T09:30:49.073Z,95870.47
2023-04-26T09:33:15.902Z,95865.22
2023-04-26T09:35:45.042Z,95867.50
2023-04-26T09:38:17.594Z,95864.69
2023-04-26T09:40:49.456Z,95875.28
2023-04-26T09:43:16.915Z,95869.81
2023-04-26T09:45:50.454Z,95873.25
2023-04-26T09:48:30.411Z,95870.38
2023-04-26T09:51:09.031Z,95868.91
2023-04-26T09:53:41.147Z,95863.31
2023-04-26T09:56:08.978Z,95851.50
2023-04-26T09:58:40.670Z,95858.25
2023-04-26T10:01:09.199Z,95851.78
2023-04-26T10:03:37.119Z,95848.22
2023-04-26T10:06:05.258Z,95851.84
2023-04-26T10:08:35.065Z,95854.47
2023-04-26T10:11:04.550Z,95842.16
2023-04-26T10:13:35.520Z,95836.41
2023-04-26T10:16:02.907Z,95843.31
2023-04-26T10:18:31.456Z,95839.31
2023-04-26T10:21:02.399Z,95831.00
2023-04-26T10:23:29.312Z,95824.91
2023-04-26T10:25:56.467Z,95825.63
2023-04-26T10:28:45.441Z,95815.75
2023-04-26T10:31:12.108Z,95823.06
2023-04-26T10:33:38.628Z,95831.38
2023-04-26T10:36:13.049Z,95834.72
2023-04-26T10:39:05.730Z,95831.09
2023-04-26T10:41:37.376Z,95829.22
2023-04-26T10:44:45.670Z,95820.09
2023-04-26T10:47:32.262Z,95813.44
2023-04-26T10:50:10.423Z,95805.91
2023-04-26T10:53:05.593Z,95802.97
2023-04-26T10:55:42.093Z,95798.09
2023-04-26T10:58:33.410Z,95804.72
2023-04-26T11:01:16.544Z,95805.75
2023-04-26T11:04:01.615Z,95798.38
2023-04-26T11:06:49.182Z,95791.19
2023-04-26T11:09:41.717Z,95803.97
2023-04-26T11:12:12.956Z,95803.97
2023-04-26T11:14:41.796Z,95798.16
2023-04-26T11:17:09.668Z,95803.09
2023-04-26T11:19:38.734Z,95811.13
2023-04-26T11:22:07.928Z,95799.56
2023-04-26T11:24:41.760Z,95797.22
2023-04-26T11:27:10.128Z,95797.00
2023-04-26T11:29:37.342Z,95790.28
2023-04-26T11:32:04.455Z,95786.88
2023-04-26T11:34:39.234Z,95787.28
2023-04-26T11:37:06.958Z,95781.94
2023-04-26T11:39:34.451Z,95779.13
2023-04-26T11:42:26.800Z,95777.69
2023-04-26T11:44:54.181Z,95773.50
2023-04-26T11:47:21.860Z,95778.06
2023-04-26T11:49:48.533Z,95776.41
2023-04-26T11:52:15.390Z,95776.78
2023-04-26T11:54:47.023Z,95777.09
2023-04-26T11:57:17.172Z,95775.63
2023-04-26T11:59:45.178Z,95785.03
2023-04-26T12:02:12.094Z,95783.75
2023-04-26T12:04:41.906Z,95776.81
2023-04-26T12:07:09.530Z,95785.78
2023-04-26T12:09:41.713Z,95783.34
2023-04-26T12:12:08.271Z,95786.75
2023-04-26T12:14:38.248Z,95780.19
2023-04-26T12:17:06.769Z,95778.56
2023-04-26T12:19:34.299Z,95778.66
2023-04-26T12:22:01.174Z,95778.25
2023-04-26T12:24:30.451Z,95782.28
2023-04-26T12:26:57.190Z,95780.41
2023-04-26T12:29:23.972Z,95779.59
2023-04-26T12:31:50.524Z,95782.38
2023-04-26T12:34:18.444Z,95781.41
2023-04-26T12:36:44.960Z,95782.47
2023-04-26T12:39:14.470Z,95781.03
2023-04-26T12:41:43.300Z,95778.19
2023-04-26T12:44:10.897Z,95781.44
2023-04-26T12:46:37.556Z,95776.22
2023-04-26T12:49:04.832Z,95778.28
2023-04-26T12:51:31.965Z,95780.91
2023-04-26T12:53:58.607Z,95781.06
2023-04-26T12:56:25.555Z,95779.28
2023-04-26T12:58:52.327Z,95772.50
2023-04-26T13:01:18.860Z,95776.34
2023-04-26T13:03:45.749Z,95773.19
2023-04-26T13:06:12.905Z,95772.00
2023-04-26T13:08:39.544Z,95774.75
2023-04-26T13:11:06.046Z,95767.16
2023-04-26T13:13:42.900Z,95767.44
2023-04-26T13:16:10.687Z,95757.59
2023-04-26T13:18:38.374Z,95753.31
2023-04-26T13:21:05.204Z,95756.31
2023-04-26T13:23:32.804Z,95753.06
2023-04-26T13:25:59.285Z,95754.03
2023-04-26T13:28:25.936Z,95752.84
2023-04-26T13:30:52.768Z,95746.38
2023-04-26T13:33:21.448Z,95743.94
2023-04-26T13:35:48.486Z,95750.09
2023-04-26T13:38:16.027Z,95750.91
2023-04-26T13:40:43.286Z,95758.16
2023-04-26T13:43:11.175Z,95761.19
2023-04-26T13:45:37.693Z,95760.06
2023-04-26T13:48:04.541Z,95757.00
2023-04-26T13:50:31.258Z,95747.47
2023-04-26T13:52:57.924Z,95755.22
2023-04-26T13:55:25.592Z,95751.53
2023-04-26T13:57:52.177Z,95752.94
2023-04-26T14:00:26.156Z,95743.25
2023-04-26T14:02:52.993Z,95745.91
2023-04-26T14:05:19.755Z,95737.22
2023-04-26T14:07:46.555Z,95743.06
2023-04-26T14:10:13.285Z,95745.50
2023-04-26T14:12:40.038Z,95747.00
2023-04-26T14:15:07.828Z,95738.91
2023-04-26T14:17:34.538Z,95741.69
2023-04-26T14:20:01.177Z,95736.94
2023-04-26T14:22:28.096Z,95737.91
2023-04-26T14:24:54.933Z,95741.09
2023-04-26T14:27:21.617Z,95741.88
2023-04-26T14:33:38.688Z,95731.31
2023-04-26T14:36:05.546Z,95734.50
2023-04-26T14:38:32.046Z,95733.28
2023-04-26T14:40:58.746Z,95736.97
2023-04-26T14:43:25.522Z,95736.25
2023-04-26T14:45:52.272Z,95730.34
2023-04-26T14:48:24.768Z,95734.84
2023-04-26T14:50:58.425Z,95729.03
2023-04-26T14:53:24.981Z,95722.53
2023-04-26T14:55:56.274Z,95723.56
2023-04-26T14:58:23.381Z,95730.56
2023-04-26T15:00:50.619Z,95720.41
2023-04-26T15:03:18.026Z,95727.72
2023-04-26T15:05:45.402Z,95724.59
2023-04-26T15:08:12.005Z,95719.22
2023-04-26T15:10:38.505Z,95721.31
2023-04-26T15:13:05.463Z,95724.91
2023-04-26T15:15:32.155Z,95714.84
2023-04-26T15:17:58.811Z,95713.81
2023-04-26T15:20:25.499Z,95717.03
2023-04-26T15:22:52.070Z,95713.44
2023-04-26T15:25:19.653Z,95715.06
2023-04-26T15:27:46.953Z,95711.41
2023-04-26T15:30:13.747Z,95721.72
2023-04-26T15:32:40.594Z,95709.13
2023-04-26T15:35:07.956Z,95711.03
2023-04-26T15:37:37.494Z,95718.22
2023-04-26T15:40:06.068Z,95710.59
2023-04-26T15:42:32.515Z,95709.13
2023-04-26T15:44:59.068Z,95715.38
2023-04-26T15:47:25.646Z,95707.97
2023-04-26T15:49:52.333Z,95716.75
2023-04-26T15:52:18.942Z,95699.09
2023-04-26T15:54:45.673Z,95708.31
2023-04-26T15:57:12.298Z,95707.84
2023-04-26T15:59:38.954Z,95699.66
2023-04-26T16:02:06.089Z,95697.91
2023-04-26T16:04:32.858Z,95702.09
2023-04-26T16:06:59.796Z,95702.72
2023-04-26T16:09:26.354Z,95708.38
2023-04-26T16:11:53.142Z,95701.81
2023-04-26T16:14:19.729Z,95702.78
2023-04-26T16:16:46.318Z,95697.44
2023-04-26T16:19:13.055Z,95702.94
2023-04-26T16:21:41.586Z,95701.16
2023-04-26T16:24:09.337Z,95695.69
2023-04-26T16:26:36.328Z,95693.25
2023-04-26T16:29:04.392Z,95702.13
2023-04-26T16:31:32.339Z,95700.66
2023-04-26T16:33:59.334Z,95703.25
2023-04-26T16:44:10.279Z,95705.22
2023-04-26T16:46:37.255Z,95700.69
2023-04-26T16:49:09.356Z,95705.84
2023-04-26T16:51:40.572Z,95705.69
2023-04-26T16:54:07.360Z,95702.59
2023-04-26T16:56:33.949Z,95703.72
2023-04-26T16:59:00.649Z,95707.94
2023-04-26T17:01:27.311Z,95709.22
2023-04-26T17:03:54.467Z,95717.94
2023-04-26T17:06:21.291Z,95711.00
2023-04-26T17:08:48.063Z,95702.59
2023-04-26T17:11:16.993Z,95711.16
2023-04-26T17:13:43.847Z,95705.03
2023-04-26T17:16:13.411Z,95709.22
2023-04-26T17:18:40.174Z,95706.13
2023-04-26T17:21:09.997Z,95702.75
2023-04-26T17:23:36.776Z,95712.88
2023-04-26T17:26:06.128Z,95711.09
2023-04-26T17:28:48.893Z,95710.06
2023-04-26T17:31:30.627Z,95715.81
2023-04-26T17:34:11.080Z,95724.81
2023-04-26T17:36:41.121Z,95718.34
2023-04-26T17:39:10.774Z,95718.34
2023-04-26T17:41:38.643Z,95721.09
2023-04-26T17:44:05.384Z,95721.59
2023-04-26T17:46:32.007Z,95716.91
2023-04-26T17:49:01.737Z,95723.38
2023-04-26T17:51:28.283Z,95727.72
2023-04-26T17:53:55.225Z,95734.38
2023-04-26T17:56:26.853Z,95734.25
2023-04-26T17:59:09.806Z,95732.63
2023-04-26T18:01:41.098Z,95732.88
2023-04-26T18:04:11.144Z,95739.00
2023-04-26T18:06:38.165Z,95737.38
2023-04-26T18:09:12.434Z,95736.22
2023-04-26T18:11:39.029Z,95743.28
2023-04-26T18:14:05.466Z,95746.47
2023-04-26T18:16:32.019Z,95750.00
2023-04-26T18:19:00.983Z,95754.13
2023-04-26T18:21:27.973Z,95748.09
2023-04-26T18:23:54.644Z,95756.56
2023-04-26T18:26:33.555Z,95761.16
2023-04-26T18:29:00.785Z,95759.16
2023-04-26T18:31:27.926Z,95761.84
2023-04-26T18:33:59.969Z,95763.38
2023-04-26T18:36:27.177Z,95755.75
2023-04-26T18:38:54.272Z,95769.03
2023-04-26T18:41:23.831Z,95768.97
2023-04-26T18:43:50.520Z,95770.88
2023-04-26T18:46:19.901Z,95766.53
2023-04-26T18:48:47.295Z,95768.75
2023-04-26T18:51:13.886Z,95774.84
2023-04-26T18:53:44.941Z,95770.31
2023-04-26T18:56:11.689Z,95770.91
2023-04-26T18:58:38.853Z,95768.28
2023-04-26T19:01:05.522Z,95768.56
2023-04-26T19:03:32.362Z,95767.06
2023-04-26T19:06:14.822Z,95768.88
2023-04-26T19:08:43.470Z,95777.47
2023-04-26T19:11:20.473Z,95786.31
2023-04-26T19:13:48.241Z,95794.41
2023-04-26T19:16:15.000Z,95790.88
2023-04-26T19:18:49.034Z,95791.78
2023-04-26T19:21:20.169Z,95798.47
2023-04-26T19:23:49.707Z,95797.16
2023-04-26T19:26:19.244Z,95799.78
2023-04-26T19:28:46.122Z,95792.09
2023-04-26T19:31:13.010Z,95797.47
2023-04-26T19:33:45.136Z,95801.59
2023-04-26T19:36:11.625Z,95806.75
2023-04-26T19:38:38.090Z,95796.44
2023-04-26T19:41:04.645Z,95803.63
2023-04-26T19:43:31.240Z,95797.97
2023-04-26T19:45:59.712Z,95798.25
2023-04-26T19:48:26.714Z,95801.53
2023-04-26T19:50:57.375Z,95805.72
2023-04-26T19:53:49.689Z,95811.44
2023-04-26T19:57:25.246Z,95816.25
2023-04-26T19:59:50.096Z,95811.06
2023-04-26T20:02:18.182Z,95813.50
2023-04-26T20:07:57.241Z,95809.84
2023-04-26T20:10:47.810Z,95815.28
2023-04-26T20:13:37.023Z,95812.13
2023-04-26T20:16:03.745Z,95813.84
2023-04-26T20:18:30.783Z,95817.88
2023-04-26T20:21:00.162Z,95822.09
2023-04-26T20:23:27.159Z,95826.53
2023-04-26T20:25:53.877Z,95824.91
2023-04-26T20:28:27.626Z,95836.09
2023-04-26T20:31:35.867Z,95837.47
2023-04-26T20:34:10.962Z,95841.44
2023-04-26T20:36:42.529Z,95839.47
2023-04-26T20:39:11.748Z,95833.44
2023-04-26T20:41:38.199Z,95834.59
2023-04-26T20:49:34.517Z,95842.41
2023-04-26T20:52:14.013Z,95848.59
2023-04-26T20:54:46.293Z,95855.44
2023-04-26T20:59:04.779Z,95848.50
2023-04-26T21:01:49.861Z,95844.50
2023-04-26T21:03:31.555Z,95858.19
2023-04-26T21:06:03.608Z,95862.34
2023-04-26T21:11:47.416Z,95865.22
2023-04-26T21:14:19.343Z,95865.84
2023-04-26T21:17:14.271Z,95859.38
2023-04-26T21:19:56.462Z,95865.38
2023-04-26T21:25:22.429Z,95870.66
2023-04-26T21:28:55.850Z,95867.72
2023-04-26T21:31:23.576Z,95870.81
2023-04-26T21:39:36.773Z,95880.69
2023-04-26T21:42:09.784Z,95885.34
2023-04-26T21:44:36.745Z,95881.63
2023-04-26T21:47:26.544Z,95886.81
2023-04-26T21:53:24.157Z,95886.31
2023-04-26T22:04:53.999Z,95880.97
2023-04-26T22:07:47.116Z,95887.53
2023-04-26T22:10:46.523Z,95889.72
2023-04-26T22:13:26.058Z,95894.09
2023-04-26T22:16:02.097Z,95885.66
2023-04-26T22:18:48.776Z,95883.22
2023-04-26T22:27:05.396Z,95887.63
2023-04-26T22:29:38.552Z,95893.38
2023-04-26T22:32:08.841Z,95893.38
2023-04-26T22:34:45.119Z,95889.59
2023-04-26T22:37:21.120Z,95889.66
2023-04-26T22:39:57.944Z,95889.13
2023-04-26T22:42:33.803Z,95886.38
2023-04-26T22:45:10.863Z,95890.97
2023-04-26T22:47:45.263Z,95879.88
2023-04-26T22:50:29.390Z,95889.13
2023-04-26T22:53:05.487Z,95887.50
2023-04-26T22:55:39.017Z,95892.97
2023-04-26T22:58:06.965Z,95895.16
2023-04-26T23:00:38.669Z,95896.25
2023-04-26T23:03:14.501Z,95904.38
2023-04-26T23:05:45.722Z,95898.41
2023-04-26T23:08:17.180Z,95910.59
2023-04-26T23:10:49.211Z,95904.63
2023-04-26T23:13:27.394Z,95913.56
2023-04-26T23:16:06.546Z,95911.69
2023-04-26T23:18:41.154Z,95910.06
2023-04-26T23:24:27.189Z,95913.56
2023-04-26T23:26:57.548Z,95917.13
2023-04-26T23:29:30.125Z,95916.84
2023-04-26T23:34:44.004Z,95914.97
2023-04-26T23:37:17.381Z,95931.53
2023-04-26T23:40:19.948Z,95924.75
2023-04-26T23:42:46.691Z,95924.47
2023-04-26T23:45:53.379Z,95929.06
2023-04-26T23:48:26.318Z,95931.78
2023-04-26T23:50:57.180Z,95928.00
2023-04-26T23:53:26.166Z,95928.53
